createdAt,value
2022-09-13T00:00:10.315Z,47.2730
2022-09-13T00:00:21.450Z,47.2610
2022-09-13T00:00:32.569Z,47.2790
2022-09-13T00:00:43.742Z,47.2850
2022-09-13T00:00:55.115Z,47.2910
2022-09-13T00:01:06.450Z,47.3090
2022-09-13T00:01:17.719Z,47.3200
2022-09-13T00:01:28.932Z,47.3260
2022-09-13T00:01:40.051Z,47.3140
2022-09-13T00:01:51.207Z,47.3260
2022-09-13T00:02:02.331Z,47.3200
2022-09-13T00:02:13.483Z,47.3090
2022-09-13T00:02:24.663Z,47.3030
2022-09-13T00:02:35.765Z,47.3090
2022-09-13T00:02:46.943Z,47.3340
2022-09-13T00:02:58.132Z,47.3400
2022-09-13T00:03:09.415Z,47.3540
2022-09-13T00:03:20.553Z,47.4050
2022-09-13T00:03:31.738Z,47.4000
2022-09-13T00:03:42.933Z,47.4140
2022-09-13T00:03:54.135Z,47.4350
2022-09-13T00:04:05.257Z,47.4500
2022-09-13T00:04:16.394Z,47.4320
2022-09-13T00:04:27.521Z,47.4380
2022-09-13T00:04:38.656Z,47.4790
2022-09-13T00:04:49.814Z,47.5000
2022-09-13T00:05:00.937Z,47.4800
2022-09-13T00:05:12.223Z,47.4560
2022-09-13T00:05:23.414Z,47.4320
2022-09-13T00:05:34.544Z,47.3980
2022-09-13T00:05:45.673Z,47.3600
2022-09-13T00:05:56.813Z,47.3480
2022-09-13T00:06:07.942Z,47.3420
2022-09-13T00:06:19.120Z,47.3240
2022-09-13T00:06:30.225Z,47.3520
2022-09-13T00:06:41.360Z,47.3700
2022-09-13T00:06:52.477Z,47.3760
2022-09-13T00:07:03.537Z,47.3400
2022-09-13T00:07:14.663Z,47.3200
2022-09-13T00:07:25.988Z,47.3120
2022-09-13T00:07:37.173Z,47.3240
2022-09-13T00:07:48.373Z,47.3060
2022-09-13T00:07:59.577Z,47.2840
2022-09-13T00:08:10.718Z,47.2960
2022-09-13T00:08:21.835Z,47.3060
2022-09-13T00:08:32.892Z,47.3240
2022-09-13T00:08:44.059Z,47.3180
2022-09-13T00:08:55.189Z,47.2780
2022-09-13T00:09:06.327Z,47.2030
2022-09-13T00:09:17.391Z,47.1690
2022-09-13T00:09:28.674Z,47.1510
2022-09-13T00:09:39.792Z,47.1690
2022-09-13T00:09:50.906Z,47.1290
2022-09-13T00:10:02.044Z,47.0930
2022-09-13T00:10:13.180Z,47.0730
2022-09-13T00:10:24.315Z,47.0610
2022-09-13T00:10:35.374Z,47.0150
2022-09-13T00:10:46.517Z,46.9870
2022-09-13T00:10:57.635Z,46.9390
2022-09-13T00:11:08.765Z,46.9350
2022-09-13T00:11:19.905Z,46.9140
2022-09-13T00:11:31.108Z,46.9330
2022-09-13T00:11:42.589Z,46.9390
2022-09-13T00:11:53.685Z,46.9410
2022-09-13T00:12:04.820Z,46.9270
2022-09-13T00:12:15.893Z,46.9140
2022-09-13T00:12:27.093Z,46.9050
2022-09-13T00:12:38.226Z,46.9230
2022-09-13T00:12:49.365Z,46.9290
2022-09-13T00:13:00.483Z,46.9290
2022-09-13T00:13:11.549Z,46.8990
2022-09-13T00:13:22.683Z,46.8730
2022-09-13T00:13:33.752Z,46.8430
2022-09-13T00:13:44.870Z,46.8550
2022-09-13T00:13:56.048Z,46.9350
2022-09-13T00:14:07.178Z,46.9570
2022-09-13T00:14:18.459Z,46.9410
2022-09-13T00:14:29.661Z,46.9470
2022-09-13T00:14:40.778Z,46.9510
2022-09-13T00:14:51.903Z,46.9590
2022-09-13T00:15:03.031Z,46.9530
2022-09-13T00:15:14.160Z,46.9410
2022-09-13T00:15:25.344Z,46.9250
2022-09-13T00:15:36.533Z,46.9330
2022-09-13T00:15:47.586Z,46.9010
2022-09-13T00:15:58.740Z,46.8890
2022-09-13T00:16:09.932Z,46.8710
2022-09-13T00:16:21.113Z,46.8890
2022-09-13T00:16:32.422Z,46.8870
2022-09-13T00:16:43.553Z,46.8670
2022-09-13T00:16:54.645Z,46.8550
2022-09-13T00:17:05.823Z,46.8930
2022-09-13T00:17:17.015Z,46.9130
2022-09-13T00:17:28.186Z,46.9050
2022-09-13T00:17:39.306Z,46.9070
2022-09-13T00:17:50.376Z,46.9170
2022-09-13T00:18:01.502Z,46.9410
2022-09-13T00:18:12.684Z,46.9870
2022-09-13T00:18:23.811Z,47.0390
2022-09-13T00:18:34.940Z,47.0670
2022-09-13T00:18:46.213Z,47.0790
2022-09-13T00:18:57.346Z,47.1110
2022-09-13T00:19:08.474Z,47.0990
2022-09-13T00:19:19.610Z,47.1050
2022-09-13T00:19:30.774Z,47.1250
2022-09-13T00:19:41.905Z,47.1390
2022-09-13T00:19:53.034Z,47.1510
2022-09-13T00:20:04.160Z,47.1480
2022-09-13T00:20:15.282Z,47.1480
2022-09-13T00:20:26.455Z,47.1560
2022-09-13T00:20:37.582Z,47.1310
2022-09-13T00:20:48.886Z,47.1130
2022-09-13T00:21:00.080Z,47.1110
2022-09-13T00:21:11.255Z,47.0990
2022-09-13T00:21:22.452Z,47.0910
2022-09-13T00:21:33.572Z,47.0790
2022-09-13T00:21:44.708Z,47.0650
2022-09-13T00:21:55.841Z,47.0770
2022-09-13T00:22:06.898Z,47.0650
2022-09-13T00:22:18.031Z,47.0590
2022-09-13T00:22:29.190Z,47.0850
2022-09-13T00:22:40.327Z,47.1110
2022-09-13T00:22:51.382Z,47.1690
2022-09-13T00:23:02.650Z,47.2100
2022-09-13T00:23:13.815Z,47.2440
2022-09-13T00:23:24.949Z,47.2440
2022-09-13T00:23:35.999Z,47.2820
2022-09-13T00:23:47.170Z,47.2910
2022-09-13T00:23:58.314Z,47.3280
2022-09-13T00:24:09.500Z,47.3460
2022-09-13T00:24:20.563Z,47.3470
2022-09-13T00:24:31.698Z,47.3470
2022-09-13T00:24:42.784Z,47.3150
2022-09-13T00:24:53.981Z,47.3090
2022-09-13T00:25:05.177Z,47.3080
2022-09-13T00:25:16.393Z,47.2900
2022-09-13T00:25:27.800Z,47.2660
2022-09-13T00:25:38.925Z,47.2600
2022-09-13T00:25:50.051Z,47.2600
2022-09-13T00:26:01.174Z,47.2340
2022-09-13T00:26:12.374Z,47.2340
2022-09-13T00:26:23.442Z,47.2040
2022-09-13T00:26:34.578Z,47.1760
2022-09-13T00:26:45.697Z,47.1760
2022-09-13T00:26:56.833Z,47.1640
2022-09-13T00:27:07.964Z,47.1520
2022-09-13T00:27:19.117Z,47.1400
2022-09-13T00:27:30.424Z,47.1460
2022-09-13T00:27:41.645Z,47.1700
2022-09-13T00:27:52.773Z,47.0900
2022-09-13T00:28:03.913Z,47.0660
2022-09-13T00:28:15.058Z,47.0480
2022-09-13T00:28:26.192Z,47.0900
2022-09-13T00:28:37.367Z,47.0840
2022-09-13T00:28:48.637Z,47.1020
2022-09-13T00:28:59.840Z,47.1080
2022-09-13T00:29:10.983Z,47.1120
2022-09-13T00:29:22.119Z,47.1180
2022-09-13T00:29:33.402Z,47.1800
2022-09-13T00:29:44.524Z,47.2040
2022-09-13T00:29:55.670Z,47.1940
2022-09-13T00:30:06.800Z,47.2200
2022-09-13T00:30:17.916Z,47.1640
2022-09-13T00:30:29.047Z,47.1280
2022-09-13T00:30:40.112Z,47.1060
2022-09-13T00:30:51.244Z,47.0820
2022-09-13T00:31:02.355Z,47.0880
2022-09-13T00:31:13.563Z,47.0560
2022-09-13T00:31:24.820Z,47.0420
2022-09-13T00:31:36.039Z,47.0420
2022-09-13T00:31:47.347Z,47.0480
2022-09-13T00:31:58.486Z,47.0540
2022-09-13T00:32:09.584Z,47.0140
2022-09-13T00:32:20.719Z,47.0200
2022-09-13T00:32:31.804Z,47.0140
2022-09-13T00:32:42.938Z,47.0320
2022-09-13T00:32:54.069Z,47.0560
2022-09-13T00:33:05.205Z,47.0500
2022-09-13T00:33:16.376Z,47.0620
2022-09-13T00:33:27.505Z,47.0880
2022-09-13T00:33:38.648Z,47.0940
2022-09-13T00:33:49.787Z,47.0820
2022-09-13T00:34:01.075Z,47.0680
2022-09-13T00:34:12.206Z,47.1240
2022-09-13T00:34:23.348Z,47.1240
2022-09-13T00:34:34.457Z,47.1280
2022-09-13T00:34:45.508Z,47.0780
2022-09-13T00:34:56.560Z,47.0820
2022-09-13T00:35:07.758Z,47.1060
2022-09-13T00:35:18.929Z,47.1180
2022-09-13T00:35:30.073Z,47.0960
2022-09-13T00:35:41.143Z,47.1400
2022-09-13T00:35:52.274Z,47.1800
2022-09-13T00:36:03.406Z,47.1860
2022-09-13T00:36:14.556Z,47.1480
2022-09-13T00:36:25.676Z,47.1360
2022-09-13T00:36:36.757Z,47.1220
2022-09-13T00:36:47.897Z,47.1340
2022-09-13T00:36:58.970Z,47.1460
2022-09-13T00:37:10.098Z,47.1280
2022-09-13T00:37:21.161Z,47.1280
2022-09-13T00:37:32.244Z,47.1460
2022-09-13T00:37:43.307Z,47.1460
2022-09-13T00:37:54.437Z,47.1180
2022-09-13T00:38:05.573Z,47.1180
2022-09-13T00:38:16.700Z,47.1020
2022-09-13T00:38:27.821Z,47.0720
2022-09-13T00:38:38.945Z,47.0620
2022-09-13T00:38:50.137Z,47.0760
2022-09-13T00:39:01.268Z,47.0880
2022-09-13T00:39:12.548Z,47.0680
2022-09-13T00:39:23.735Z,47.0940
2022-09-13T00:39:34.802Z,47.1360
2022-09-13T00:39:49.651Z,47.1300
2022-09-13T00:40:01.248Z,47.3020
2022-09-13T00:40:12.419Z,47.1700
2022-09-13T00:40:23.630Z,47.1180
2022-09-13T00:40:34.641Z,47.0940
2022-09-13T00:40:45.769Z,47.0620
2022-09-13T00:40:56.895Z,47.0740
2022-09-13T00:41:08.040Z,47.0740
2022-09-13T00:41:19.178Z,47.1060
2022-09-13T00:41:30.306Z,47.1120
2022-09-13T00:41:41.588Z,47.1060
2022-09-13T00:41:52.705Z,47.1140
2022-09-13T00:42:03.838Z,47.1280
2022-09-13T00:42:14.896Z,47.0960
2022-09-13T00:42:26.042Z,47.0880
2022-09-13T00:42:37.178Z,47.0680
2022-09-13T00:42:48.223Z,47.0680
2022-09-13T00:42:59.417Z,47.0820
2022-09-13T00:43:10.617Z,47.0620
2022-09-13T00:43:21.746Z,47.0500
2022-09-13T00:43:32.796Z,46.9880
2022-09-13T00:43:43.945Z,46.9620
2022-09-13T00:43:55.008Z,46.9420
2022-09-13T00:44:06.147Z,46.9980
2022-09-13T00:44:17.416Z,47.0420
2022-09-13T00:44:28.550Z,47.0320
2022-09-13T00:44:39.665Z,47.0500
2022-09-13T00:44:50.707Z,47.0680
2022-09-13T00:45:01.833Z,47.0680
2022-09-13T00:45:12.963Z,47.0440
2022-09-13T00:45:24.246Z,47.0260
2022-09-13T00:45:35.430Z,47.0260
2022-09-13T00:45:46.481Z,47.0080
2022-09-13T00:45:57.729Z,46.9820
2022-09-13T00:46:09.057Z,47.0080
2022-09-13T00:46:20.175Z,47.0100
2022-09-13T00:46:31.312Z,47.0100
2022-09-13T00:46:42.590Z,47.0160
2022-09-13T00:46:53.731Z,47.0600
2022-09-13T00:47:04.779Z,47.0340
2022-09-13T00:47:15.905Z,46.9640
2022-09-13T00:47:27.025Z,46.9280
2022-09-13T00:47:38.198Z,46.9080
2022-09-13T00:47:49.279Z,46.9000
2022-09-13T00:48:00.361Z,46.8700
2022-09-13T00:48:11.501Z,46.8560
2022-09-13T00:48:22.613Z,46.8820
2022-09-13T00:48:33.748Z,46.8440
2022-09-13T00:48:44.887Z,46.8380
2022-09-13T00:48:56.016Z,46.8020
2022-09-13T00:49:07.290Z,46.7680
2022-09-13T00:49:18.423Z,46.7500
2022-09-13T00:49:29.543Z,46.7560
2022-09-13T00:49:40.701Z,46.7300
2022-09-13T00:49:51.891Z,46.7520
2022-09-13T00:50:03.017Z,46.8020
2022-09-13T00:50:14.140Z,46.8020
2022-09-13T00:50:25.273Z,46.8160
2022-09-13T00:50:36.404Z,46.8480
2022-09-13T00:50:47.577Z,46.8840
2022-09-13T00:50:58.780Z,46.8900
2022-09-13T00:51:10.130Z,46.8940
2022-09-13T00:51:21.266Z,46.9120
2022-09-13T00:51:32.387Z,46.9240
2022-09-13T00:51:43.573Z,46.9000
2022-09-13T00:51:54.711Z,46.8870
2022-09-13T00:52:06.283Z,46.8720
2022-09-13T00:52:17.405Z,46.9220
2022-09-13T00:52:28.539Z,46.8900
2022-09-13T00:52:41.195Z,46.8780
2022-09-13T00:52:55.056Z,47.0880
2022-09-13T00:53:06.188Z,46.9980
2022-09-13T00:53:17.248Z,46.9420
2022-09-13T00:53:28.524Z,46.9790
2022-09-13T00:53:39.664Z,47.0010
2022-09-13T00:53:50.786Z,46.9880
2022-09-13T00:54:01.918Z,46.9690
2022-09-13T00:54:13.076Z,46.9820
2022-09-13T00:54:24.222Z,47.0040
2022-09-13T00:54:35.277Z,47.0410
2022-09-13T00:54:46.415Z,47.0260
2022-09-13T00:54:57.544Z,47.0440
2022-09-13T00:55:08.682Z,47.0560
2022-09-13T00:55:19.808Z,47.0780
2022-09-13T00:55:30.885Z,47.0600
2022-09-13T00:55:42.161Z,47.0480
2022-09-13T00:55:53.294Z,47.0600
2022-09-13T00:56:04.430Z,47.0340
2022-09-13T00:56:15.564Z,47.0030
2022-09-13T00:56:26.613Z,46.9910
2022-09-13T00:56:37.749Z,46.9730
2022-09-13T00:56:48.887Z,46.9910
2022-09-13T00:56:59.946Z,46.9980
2022-09-13T00:57:11.071Z,47.0100
2022-09-13T00:57:22.195Z,47.0080
2022-09-13T00:57:33.451Z,47.0140
2022-09-13T00:57:44.601Z,47.0560
2022-09-13T00:57:55.727Z,47.0740
2022-09-13T00:58:07.030Z,47.0820
2022-09-13T00:58:18.144Z,47.1020
2022-09-13T00:58:29.332Z,47.1460
2022-09-13T00:58:40.539Z,47.1080
2022-09-13T00:58:51.736Z,47.0780
2022-09-13T00:59:02.868Z,47.0620
2022-09-13T00:59:13.995Z,47.0560
2022-09-13T00:59:25.133Z,47.0560
2022-09-13T00:59:36.268Z,47.0500
2022-09-13T00:59:47.405Z,47.0740
2022-09-13T00:59:58.544Z,47.0880
2022-09-13T01:00:09.845Z,47.0940
2022-09-13T01:00:21.004Z,47.1000
2022-09-13T01:00:32.144Z,47.1080
2022-09-13T01:00:43.331Z,47.1140
2022-09-13T01:00:54.483Z,47.1220
2022-09-13T01:01:05.684Z,47.1280
2022-09-13T01:01:16.869Z,47.1020
2022-09-13T01:01:28.096Z,47.1020
2022-09-13T01:01:39.269Z,47.1680
2022-09-13T01:01:50.457Z,47.1460
2022-09-13T01:02:01.647Z,47.1520
2022-09-13T01:02:12.964Z,47.1140
2022-09-13T01:02:24.164Z,47.0900
2022-09-13T01:02:35.316Z,47.1060
2022-09-13T01:02:46.426Z,47.0900
2022-09-13T01:02:57.554Z,47.1080
2022-09-13T01:03:08.704Z,47.1340
2022-09-13T01:03:19.902Z,47.1400
2022-09-13T01:03:31.097Z,47.1220
2022-09-13T01:03:42.336Z,47.1020
2022-09-13T01:03:53.408Z,47.0440
2022-09-13T01:04:04.542Z,47.0260
2022-09-13T01:04:15.574Z,47.0480
2022-09-13T01:04:26.926Z,47.0220
2022-09-13T01:04:38.045Z,46.9980
2022-09-13T01:04:49.205Z,46.9940
2022-09-13T01:05:00.375Z,47.0380
2022-09-13T01:05:11.575Z,47.0680
2022-09-13T01:05:22.716Z,47.0410
2022-09-13T01:05:33.840Z,46.9850
2022-09-13T01:05:44.968Z,46.9270
2022-09-13T01:05:56.096Z,46.9210
2022-09-13T01:06:07.256Z,46.9480
2022-09-13T01:06:18.467Z,46.9420
2022-09-13T01:06:29.814Z,46.9480
2022-09-13T01:06:40.934Z,46.9420
2022-09-13T01:06:52.065Z,46.9300
2022-09-13T01:07:03.124Z,46.9120
2022-09-13T01:07:14.275Z,46.9060
2022-09-13T01:07:25.407Z,46.9420
2022-09-13T01:07:36.562Z,46.9640
2022-09-13T01:07:47.761Z,46.9790
2022-09-13T01:07:58.934Z,46.9670
2022-09-13T01:08:10.136Z,46.9290
2022-09-13T01:08:21.265Z,46.8870
2022-09-13T01:08:32.323Z,46.8470
2022-09-13T01:08:43.600Z,46.8200
2022-09-13T01:08:54.778Z,46.8040
2022-09-13T01:09:05.906Z,46.8100
2022-09-13T01:09:17.039Z,46.7980
2022-09-13T01:09:28.217Z,46.8100
2022-09-13T01:09:39.419Z,46.7980
2022-09-13T01:09:50.621Z,46.7680
2022-09-13T01:10:01.817Z,46.7910
2022-09-13T01:10:13.014Z,46.8080
2022-09-13T01:10:24.145Z,46.8020
2022-09-13T01:10:35.209Z,46.7700
2022-09-13T01:10:46.346Z,46.7120
2022-09-13T01:10:57.435Z,46.7060
2022-09-13T01:11:08.588Z,46.7240
2022-09-13T01:11:19.721Z,46.7800
2022-09-13T01:11:30.850Z,46.7980
2022-09-13T01:11:41.967Z,46.7700
2022-09-13T01:11:53.093Z,46.7390
2022-09-13T01:12:04.134Z,46.7510
2022-09-13T01:12:15.303Z,46.7460
2022-09-13T01:12:26.460Z,46.7640
2022-09-13T01:12:37.670Z,46.7880
2022-09-13T01:12:48.985Z,46.8250
2022-09-13T01:13:00.115Z,46.8950
2022-09-13T01:13:11.394Z,46.9580
2022-09-13T01:13:22.515Z,46.9670
2022-09-13T01:13:33.629Z,46.9510
2022-09-13T01:13:44.756Z,47.0200
2022-09-13T01:13:55.874Z,47.0450
2022-09-13T01:14:07.010Z,47.0140
2022-09-13T01:14:18.075Z,47.0390
2022-09-13T01:14:29.199Z,47.0420
2022-09-13T01:14:40.326Z,47.1040
2022-09-13T01:14:51.465Z,47.1040
2022-09-13T01:15:02.596Z,47.0780
2022-09-13T01:15:13.724Z,47.1100
2022-09-13T01:15:24.999Z,47.0540
2022-09-13T01:15:36.137Z,47.0840
2022-09-13T01:15:47.267Z,47.0780
2022-09-13T01:15:58.403Z,47.0720
2022-09-13T01:16:09.599Z,47.0660
2022-09-13T01:16:20.814Z,47.0490
2022-09-13T01:16:32.013Z,47.0090
2022-09-13T01:16:47.643Z,46.9580
2022-09-13T01:17:00.083Z,47.1340
2022-09-13T01:17:11.253Z,47.0340
2022-09-13T01:17:22.383Z,46.9410
2022-09-13T01:17:33.654Z,46.9020
2022-09-13T01:17:44.739Z,46.9160
2022-09-13T01:17:55.984Z,46.8950
2022-09-13T01:18:07.108Z,46.8940
2022-09-13T01:18:18.232Z,46.8680
2022-09-13T01:18:29.365Z,46.8350
2022-09-13T01:18:40.539Z,46.8280
2022-09-13T01:18:51.659Z,46.8160
2022-09-13T01:19:02.789Z,46.7980
2022-09-13T01:19:13.916Z,46.7800
2022-09-13T01:19:25.053Z,46.7740
2022-09-13T01:19:36.347Z,46.7680
2022-09-13T01:19:47.394Z,46.7980
2022-09-13T01:19:58.539Z,46.8360
2022-09-13T01:20:09.671Z,46.8960
2022-09-13T01:20:20.795Z,46.9170
2022-09-13T01:20:31.930Z,46.8870
2022-09-13T01:20:43.099Z,46.8680
2022-09-13T01:20:54.296Z,46.8500
2022-09-13T01:21:05.495Z,46.8040
2022-09-13T01:21:16.698Z,46.7680
2022-09-13T01:21:27.896Z,46.7420
2022-09-13T01:21:39.016Z,46.7120
2022-09-13T01:21:50.295Z,46.7180
2022-09-13T01:22:01.497Z,46.7340
2022-09-13T01:22:12.687Z,46.7020
2022-09-13T01:22:23.819Z,46.6900
2022-09-13T01:22:34.961Z,46.6900
2022-09-13T01:22:46.092Z,46.6540
2022-09-13T01:22:57.259Z,46.6360
2022-09-13T01:23:08.429Z,46.6600
2022-09-13T01:23:19.560Z,46.7280
2022-09-13T01:23:30.585Z,46.7360
2022-09-13T01:23:41.717Z,46.7500
2022-09-13T01:23:53.008Z,46.7610
2022-09-13T01:24:04.133Z,46.8250
2022-09-13T01:24:15.281Z,46.8870
2022-09-13T01:24:26.457Z,46.9270
2022-09-13T01:24:37.510Z,46.9330
2022-09-13T01:24:48.641Z,46.9240
2022-09-13T01:24:59.763Z,46.8930
2022-09-13T01:25:10.933Z,46.8070
2022-09-13T01:25:22.068Z,46.7730
2022-09-13T01:25:33.140Z,46.7850
2022-09-13T01:25:44.275Z,46.7550
2022-09-13T01:25:55.434Z,46.7480
2022-09-13T01:26:06.606Z,46.7610
2022-09-13T01:26:17.884Z,46.7080
2022-09-13T01:26:28.944Z,46.6900
2022-09-13T01:26:40.086Z,46.6720
2022-09-13T01:26:51.208Z,46.6590
2022-09-13T01:27:02.242Z,46.6900
2022-09-13T01:27:13.378Z,46.7160
2022-09-13T01:27:24.508Z,46.7160
2022-09-13T01:27:35.644Z,46.7410
2022-09-13T01:27:46.848Z,46.7550
2022-09-13T01:27:58.002Z,46.7410
2022-09-13T01:28:09.206Z,46.7290
2022-09-13T01:28:20.385Z,46.6990
2022-09-13T01:28:31.576Z,46.6540
2022-09-13T01:28:42.851Z,46.6320
2022-09-13T01:28:53.973Z,46.5960
2022-09-13T01:29:05.163Z,46.5580
2022-09-13T01:29:16.294Z,46.5220
2022-09-13T01:29:27.420Z,46.5120
2022-09-13T01:29:38.537Z,46.4880
2022-09-13T01:29:49.664Z,46.4500
2022-09-13T01:30:00.854Z,46.4480
2022-09-13T01:30:12.060Z,46.4540
2022-09-13T01:30:23.185Z,46.4840
2022-09-13T01:30:34.315Z,46.4960
2022-09-13T01:30:45.600Z,46.4780
2022-09-13T01:30:56.738Z,46.4660
2022-09-13T01:31:07.865Z,46.4420
2022-09-13T01:31:19.078Z,46.4420
2022-09-13T01:31:30.324Z,46.4540
2022-09-13T01:31:41.488Z,46.4300
2022-09-13T01:31:52.680Z,46.4250
2022-09-13T01:32:03.830Z,46.4490
2022-09-13T01:32:14.987Z,46.4550
2022-09-13T01:32:26.116Z,46.4490
2022-09-13T01:32:37.255Z,46.4310
2022-09-13T01:32:48.541Z,46.4190
2022-09-13T01:32:59.763Z,46.4190
2022-09-13T01:33:10.978Z,46.4150
2022-09-13T01:33:22.130Z,46.4550
2022-09-13T01:33:33.254Z,46.4370
2022-09-13T01:33:44.294Z,46.4430
2022-09-13T01:33:55.425Z,46.4550
2022-09-13T01:34:06.616Z,46.4610
2022-09-13T01:34:17.814Z,46.4730
2022-09-13T01:34:29.014Z,46.4670
2022-09-13T01:34:40.073Z,46.4710
2022-09-13T01:34:51.133Z,46.4590
2022-09-13T01:35:02.310Z,46.4530
2022-09-13T01:35:13.582Z,46.4650
2022-09-13T01:35:24.706Z,46.4830
2022-09-13T01:35:35.899Z,46.4830
2022-09-13T01:35:46.954Z,46.4930
2022-09-13T01:35:58.090Z,46.5050
2022-09-13T01:36:09.219Z,46.5170
2022-09-13T01:36:20.357Z,46.5230
2022-09-13T01:36:31.496Z,46.5170
2022-09-13T01:36:42.567Z,46.5170
2022-09-13T01:36:53.703Z,46.5290
2022-09-13T01:37:04.767Z,46.5290
2022-09-13T01:37:15.901Z,46.5410
2022-09-13T01:37:27.019Z,46.5110
2022-09-13T01:37:38.078Z,46.5230
2022-09-13T01:37:49.214Z,46.4990
2022-09-13T01:38:00.505Z,46.5010
2022-09-13T01:38:11.677Z,46.4950
2022-09-13T01:38:22.815Z,46.4890
2022-09-13T01:38:33.874Z,46.4710
2022-09-13T01:38:45.013Z,46.4650
2022-09-13T01:38:56.135Z,46.4310
2022-09-13T01:39:07.292Z,46.4830
2022-09-13T01:39:18.425Z,46.5190
2022-09-13T01:39:29.547Z,46.6150
2022-09-13T01:39:40.726Z,46.6560
2022-09-13T01:39:51.942Z,46.6560
2022-09-13T01:40:03.161Z,46.6420
2022-09-13T01:40:14.514Z,46.6160
2022-09-13T01:40:25.624Z,46.5920
2022-09-13T01:40:36.674Z,46.5800
2022-09-13T01:40:47.817Z,46.5620
2022-09-13T01:41:02.909Z,46.6040
2022-09-13T01:41:15.964Z,46.9680
2022-09-13T01:41:27.011Z,46.8960
2022-09-13T01:41:38.134Z,46.7610
2022-09-13T01:41:49.264Z,46.6760
2022-09-13T01:42:00.401Z,46.6380
2022-09-13T01:42:11.495Z,46.5960
2022-09-13T01:42:22.618Z,46.5500
2022-09-13T01:42:33.735Z,46.5300
2022-09-13T01:42:44.796Z,46.5300
2022-09-13T01:42:56.105Z,46.5120
2022-09-13T01:43:07.206Z,46.4840
2022-09-13T01:43:18.353Z,46.5040
2022-09-13T01:43:29.485Z,46.5340
2022-09-13T01:43:40.617Z,46.5100
2022-09-13T01:43:51.742Z,46.5760
2022-09-13T01:44:02.868Z,46.6160
2022-09-13T01:44:13.968Z,46.6220
2022-09-13T01:44:25.182Z,46.6500
2022-09-13T01:44:36.370Z,46.6620
2022-09-13T01:44:47.497Z,46.6320
2022-09-13T01:44:58.623Z,46.5960
2022-09-13T01:45:09.886Z,46.5460
2022-09-13T01:45:21.028Z,46.5520
2022-09-13T01:45:32.204Z,46.5460
2022-09-13T01:45:43.355Z,46.6020
2022-09-13T01:45:54.544Z,46.5980
2022-09-13T01:46:05.719Z,46.6040
2022-09-13T01:46:16.888Z,46.6040
2022-09-13T01:46:28.212Z,46.5760
2022-09-13T01:46:39.414Z,46.5460
2022-09-13T01:46:50.670Z,46.5020
2022-09-13T01:47:01.966Z,46.4880
2022-09-13T01:47:13.236Z,46.4440
2022-09-13T01:47:24.537Z,46.4240
2022-09-13T01:47:35.675Z,46.3920
2022-09-13T01:47:46.746Z,46.3620
2022-09-13T01:47:57.884Z,46.3570
2022-09-13T01:48:09.025Z,46.3510
2022-09-13T01:48:20.194Z,46.3200
2022-09-13T01:48:31.329Z,46.2720
2022-09-13T01:48:42.459Z,46.2940
2022-09-13T01:48:53.658Z,46.2880
2022-09-13T01:49:04.855Z,46.2880
2022-09-13T01:49:16.198Z,46.2880
2022-09-13T01:49:27.563Z,46.2880
2022-09-13T01:49:38.916Z,46.2940
2022-09-13T01:49:50.059Z,46.3050
2022-09-13T01:50:01.375Z,46.3180
2022-09-13T01:50:12.660Z,46.3230
2022-09-13T01:50:23.875Z,46.2940
2022-09-13T01:50:35.009Z,46.2720
2022-09-13T01:50:46.298Z,46.2660
2022-09-13T01:50:57.571Z,46.2600
2022-09-13T01:51:08.869Z,46.2720
2022-09-13T01:51:20.067Z,46.2840
2022-09-13T01:51:31.201Z,46.3020
2022-09-13T01:51:42.617Z,46.3080
2022-09-13T01:51:53.748Z,46.3000
2022-09-13T01:52:04.882Z,46.3000
2022-09-13T01:52:16.009Z,46.2880
2022-09-13T01:52:27.155Z,46.2940
2022-09-13T01:52:38.286Z,46.3230
2022-09-13T01:52:49.425Z,46.3540
2022-09-13T01:53:00.560Z,46.3570
2022-09-13T01:53:11.692Z,46.3750
2022-09-13T01:53:22.848Z,46.3690
2022-09-13T01:53:33.912Z,46.3690
2022-09-13T01:53:45.078Z,46.3990
2022-09-13T01:53:56.350Z,46.4160
2022-09-13T01:54:07.464Z,46.4540
2022-09-13T01:54:18.622Z,46.4540
2022-09-13T01:54:29.746Z,46.4600
2022-09-13T01:54:40.821Z,46.4720
2022-09-13T01:54:51.944Z,46.4780
2022-09-13T01:55:03.074Z,46.4480
2022-09-13T01:55:14.226Z,46.4160
2022-09-13T01:55:25.366Z,46.4130
2022-09-13T01:55:36.428Z,46.4130
2022-09-13T01:55:47.562Z,46.3990
2022-09-13T01:55:58.702Z,46.4060
2022-09-13T01:56:09.837Z,46.4130
2022-09-13T01:56:21.166Z,46.4850
2022-09-13T01:56:32.292Z,46.5100
2022-09-13T01:56:43.425Z,46.4780
2022-09-13T01:56:54.479Z,46.4880
2022-09-13T01:57:05.633Z,46.5300
2022-09-13T01:57:16.768Z,46.5700
2022-09-13T01:57:27.904Z,46.6020
2022-09-13T01:57:39.089Z,46.5960
2022-09-13T01:57:50.213Z,46.5400
2022-09-13T01:58:01.364Z,46.5500
2022-09-13T01:58:12.470Z,46.5900
2022-09-13T01:58:23.635Z,46.5960
2022-09-13T01:58:34.906Z,46.6080
2022-09-13T01:58:46.041Z,46.6350
2022-09-13T01:58:57.102Z,46.5980
2022-09-13T01:59:08.230Z,46.5700
2022-09-13T01:59:19.376Z,46.5400
2022-09-13T01:59:30.526Z,46.5280
2022-09-13T01:59:41.667Z,46.5160
2022-09-13T01:59:52.850Z,46.4900
2022-09-13T02:00:03.996Z,46.4900
2022-09-13T02:00:15.120Z,46.4600
2022-09-13T02:00:26.257Z,46.4500
2022-09-13T02:00:37.384Z,46.4320
2022-09-13T02:00:48.737Z,46.4140
2022-09-13T02:00:59.938Z,46.4260
2022-09-13T02:01:11.108Z,46.4200
2022-09-13T02:01:22.262Z,46.3680
2022-09-13T02:01:33.408Z,46.3620
2022-09-13T02:01:44.525Z,46.3180
2022-09-13T02:01:55.723Z,46.3060
2022-09-13T02:02:06.938Z,46.2660
2022-09-13T02:02:18.078Z,46.2480
2022-09-13T02:02:29.223Z,46.2600
2022-09-13T02:02:40.316Z,46.2320
2022-09-13T02:02:51.588Z,46.2320
2022-09-13T02:03:02.726Z,46.2200
2022-09-13T02:03:13.863Z,46.2000
2022-09-13T02:03:25.050Z,46.1820
2022-09-13T02:03:36.218Z,46.1640
2022-09-13T02:03:47.421Z,46.1640
2022-09-13T02:03:58.616Z,46.1700
2022-09-13T02:04:09.821Z,46.1460
2022-09-13T02:04:20.931Z,46.1400
2022-09-13T02:04:32.053Z,46.1280
2022-09-13T02:04:43.187Z,46.1340
2022-09-13T02:04:54.465Z,46.1460
2022-09-13T02:05:05.597Z,46.1640
2022-09-13T02:05:16.725Z,46.2480
2022-09-13T02:05:27.895Z,46.2480
2022-09-13T02:05:39.033Z,46.2880
2022-09-13T02:05:50.160Z,46.3040
2022-09-13T02:06:01.290Z,46.3520
2022-09-13T02:06:12.409Z,46.3800
2022-09-13T02:06:23.576Z,46.3860
2022-09-13T02:06:34.772Z,46.3860
2022-09-13T02:06:45.897Z,46.3120
2022-09-13T02:06:57.171Z,46.2820
2022-09-13T02:07:08.299Z,46.2660
2022-09-13T02:07:19.426Z,46.2660
2022-09-13T02:07:30.563Z,46.2480
2022-09-13T02:07:41.683Z,46.2960
2022-09-13T02:07:52.844Z,46.3340
2022-09-13T02:08:04.055Z,46.3040
2022-09-13T02:08:15.186Z,46.3220
2022-09-13T02:08:26.333Z,46.3220
2022-09-13T02:08:37.400Z,46.3100
2022-09-13T02:08:48.460Z,46.3040
2022-09-13T02:08:59.589Z,46.2840
2022-09-13T02:09:10.863Z,46.2660
2022-09-13T02:09:22.007Z,46.2940
2022-09-13T02:09:33.058Z,46.3000
2022-09-13T02:09:44.189Z,46.4020
2022-09-13T02:09:55.317Z,46.4080
2022-09-13T02:10:06.443Z,46.3840
2022-09-13T02:10:17.610Z,46.3900
2022-09-13T02:10:28.716Z,46.3700
2022-09-13T02:10:39.893Z,46.3580
2022-09-13T02:10:51.014Z,46.3960
2022-09-13T02:11:02.154Z,46.4560
2022-09-13T02:11:13.274Z,46.5020
2022-09-13T02:11:24.334Z,46.5640
2022-09-13T02:11:35.393Z,46.6160
2022-09-13T02:11:46.518Z,46.6350
2022-09-13T02:11:57.650Z,46.6070
2022-09-13T02:12:08.775Z,46.5920
2022-09-13T02:12:19.851Z,46.5730
2022-09-13T02:12:30.941Z,46.5860
2022-09-13T02:12:42.148Z,46.5800
2022-09-13T02:12:53.334Z,46.5980
2022-09-13T02:13:04.549Z,46.6040
2022-09-13T02:13:15.602Z,46.6020
2022-09-13T02:13:26.654Z,46.5860
2022-09-13T02:13:37.940Z,46.5420
2022-09-13T02:13:49.442Z,46.5680
2022-09-13T02:14:00.599Z,46.5920
2022-09-13T02:14:11.660Z,46.5800
2022-09-13T02:14:22.795Z,46.5500
2022-09-13T02:14:33.927Z,46.5520
2022-09-13T02:14:45.059Z,46.5820
2022-09-13T02:14:56.219Z,46.6300
2022-09-13T02:15:07.338Z,46.6350
2022-09-13T02:15:18.463Z,46.6720